Time;durP1;ratioP1;P1;durP2;ratioP2;P2;SDS_P1;SDS_P2;PMS_P1;PMS_P2;Temp;Humidity;BMP_temperature;BMP_pressure;BME280_temperature;BME280_humidity;BME280_pressure;Samples;Min_cycle;Max_cycle;Signal;HPM_P1;HPM_P2
2023/08/17 00:01:44;;;;;;;2.47;1.42;;;;;;;18.79;92.05;101254.13;5042011;28;20135;-83
2023/08/17 00:04:14;;;;;;;1.58;1.30;;;;;;;18.79;91.99;101246.16;5065868;28;20033;-86
2023/08/17 00:06:41;;;;;;;5.55;1.55;;;;;;;18.79;92.10;101239.06;5059950;28;20079;-84
2023/08/17 00:09:12;;;;;;;4.50;1.67;;;;;;;18.79;92.31;101235.56;5063013;28;20432;-84
2023/08/17 00:11:39;;;;;;;4.20;1.45;;;;;;;18.77;92.43;101232.06;5067620;28;20045;-85
2023/08/17 00:14:06;;;;;;;1.65;1.15;;;;;;;18.78;92.73;101231.16;5063676;28;20040;-82
2023/08/17 00:16:33;;;;;;;2.60;1.30;;;;;;;18.75;93.00;101233.94;5060758;28;20067;-86
2023/08/17 00:19:02;;;;;;;2.88;1.40;;;;;;;18.75;93.08;101228.63;5061409;28;20051;-90
2023/08/17 00:21:28;;;;;;;4.55;1.90;;;;;;;18.74;93.92;101232.19;5045189;28;20480;-84
2023/08/17 00:23:56;;;;;;;1.30;0.90;;;;;;;18.72;93.91;101234.91;5040968;28;20109;-83
2023/08/17 00:26:23;;;;;;;4.40;1.85;;;;;;;18.70;94.35;101239.38;5077878;28;20109;-86
2023/08/17 00:28:50;;;;;;;2.95;1.52;;;;;;;18.70;94.64;101249.97;5049059;28;20180;-86
2023/08/17 00:31:16;;;;;;;3.83;2.05;;;;;;;18.70;95.58;101241.19;5086394;28;20492;-88
2023/08/17 00:33:44;;;;;;;6.72;1.92;;;;;;;18.70;95.90;101243.81;5058583;28;20057;-85
2023/08/17 00:36:11;;;;;;;4.75;1.23;;;;;;;18.69;95.90;101237.63;5066894;28;20057;-86
2023/08/17 00:38:37;;;;;;;6.13;1.20;;;;;;;18.68;97.37;101242.09;5059115;28;20057;-87
2023/08/17 00:41:04;;;;;;;3.88;1.60;;;;;;;18.66;97.22;101232.44;5052787;28;20051;-85
2023/08/17 00:43:31;;;;;;;1.90;1.48;;;;;;;18.60;96.84;101240.59;5050656;28;20099;-84
2023/08/17 00:45:58;;;;;;;2.40;1.73;;;;;;;18.58;98.14;101237.16;5065556;28;20052;-84
2023/08/17 00:48:26;;;;;;;6.65;2.28;;;;;;;18.52;98.78;101228.47;5057695;28;20036;-84
2023/08/17 00:50:54;;;;;;;4.05;2.33;;;;;;;18.49;99.77;101235.66;5064889;28;20049;-88
2023/08/17 00:53:22;;;;;;;7.30;1.80;;;;;;;18.42;100.00;101235.00;5080340;28;20048;-84
2023/08/17 00:55:48;;;;;;;2.53;1.60;;;;;;;18.33;100.00;101241.44;5047177;28;20069;-84
2023/08/17 00:58:17;;;;;;;3.38;2.03;;;;;;;18.21;100.00;101231.22;5062631;28;20037;-86
2023/08/17 01:00:43;;;;;;;2.60;1.30;;;;;;;18.10;100.00;101236.03;5062627;28;20080;-85
2023/08/17 01:03:10;;;;;;;8.23;2.00;;;;;;;18.01;100.00;101230.06;5052097;28;20044;-83
2023/08/17 01:05:40;;;;;;;3.85;2.33;;;;;;;17.99;100.00;101228.38;5059121;28;20098;-83
2023/08/17 01:08:06;;;;;;;3.72;1.80;;;;;;;17.96;100.00;101234.63;5063434;28;20365;-84
2023/08/17 01:11:21;;;;;;;4.93;1.60;;;;;;;17.95;100.00;101232.03;5065416;28;20711;-84
2023/08/17 01:14:00;;;;;;;2.63;2.08;;;;;;;17.87;100.00;101240.19;5025965;28;20059;-90
2023/08/17 01:16:36;;;;;;;4.93;2.45;;;;;;;17.82;100.00;101239.47;5079824;28;20040;-84
2023/08/17 01:19:10;;;;;;;4.30;2.60;;;;;;;17.78;100.00;101238.69;5069713;28;20464;-84
2023/08/17 01:21:51;;;;;;;5.28;2.63;;;;;;;17.73;100.00;101251.22;5062325;28;20129;-83
2023/08/17 01:24:18;;;;;;;2.97;1.80;;;;;;;17.67;100.00;101248.72;5068010;28;20048;-83
2023/08/17 01:26:47;;;;;;;2.00;1.80;;;;;;;17.62;100.00;101243.56;5065552;28;20040;-84
2023/08/17 01:29:13;;;;;;;2.75;2.42;;;;;;;17.59;100.00;101251.59;5068831;28;20066;-84
2023/08/17 01:32:07;;;;;;;3.67;2.22;;;;;;;17.62;100.00;101261.25;5064538;28;20045;-85
2023/08/17 01:34:41;;;;;;;2.22;1.92;;;;;;;17.58;100.00;101249.00;5061236;28;20064;-85
2023/08/17 01:37:11;;;;;;;3.55;2.05;;;;;;;17.50;100.00;101249.22;5063846;28;20051;-87
2023/08/17 01:39:40;;;;;;;4.40;2.13;;;;;;;17.39;100.00;101235.41;5061073;28;20503;-84
2023/08/17 01:42:08;;;;;;;6.05;2.47;;;;;;;17.33;100.00;101237.31;5057390;28;20045;-86
2023/08/17 01:44:34;;;;;;;6.20;2.80;;;;;;;17.27;100.00;101236.63;5084278;28;20245;-85
2023/08/17 01:47:01;;;;;;;9.02;3.38;;;;;;;17.20;100.00;101243.88;5072461;28;20084;-88
2023/08/17 01:49:28;;;;;;;5.68;2.50;;;;;;;17.17;100.00;101251.91;5054773;28;20040;-84
2023/08/17 01:51:54;;;;;;;3.78;2.72;;;;;;;17.17;100.00;101254.53;5037577;28;20041;-84
2023/08/17 01:54:21;;;;;;;5.90;2.33;;;;;;;17.10;100.00;101247.66;5076439;28;20032;-85
2023/08/17 01:56:48;;;;;;;6.10;2.90;;;;;;;17.01;100.00;101238.19;5069429;28;20044;-85
2023/08/17 01:59:14;;;;;;;5.13;3.08;;;;;;;16.93;100.00;101225.16;5050453;28;20056;-85
2023/08/17 02:01:44;;;;;;;5.88;3.88;;;;;;;16.85;100.00;101230.63;5051401;28;20044;-85
2023/08/17 02:04:11;;;;;;;7.25;3.05;;;;;;;16.76;100.00;101228.22;5050237;28;20049;-84
2023/08/17 02:06:37;;;;;;;7.47;3.75;;;;;;;16.69;100.00;101231.94;5065652;28;20068;-86
2023/08/17 02:09:05;;;;;;;6.47;3.70;;;;;;;16.64;100.00;101226.75;5046228;28;20362;-85
2023/08/17 02:11:32;;;;;;;9.30;4.15;;;;;;;16.66;100.00;101224.97;5064193;28;20051;-84
2023/08/17 02:13:58;;;;;;;3.15;2.85;;;;;;;16.67;100.00;101234.63;5077994;28;20048;-84
2023/08/17 02:16:25;;;;;;;11.25;4.70;;;;;;;16.69;100.00;101232.78;5061332;28;20040;-87
2023/08/17 02:18:52;;;;;;;6.43;3.63;;;;;;;16.69;100.00;101231.94;5061820;28;20048;-87
2023/08/17 02:21:23;;;;;;;5.22;3.80;;;;;;;16.61;100.00;101224.19;5049135;28;20071;-87
2023/08/17 02:23:53;;;;;;;6.50;4.13;;;;;;;16.61;100.00;101225.97;5051546;28;20488;-88
2023/08/17 02:26:20;;;;;;;8.50;4.60;;;;;;;16.57;100.00;101233.13;5046762;28;20045;-86
2023/08/17 02:28:47;;;;;;;6.18;3.95;;;;;;;16.52;100.00;101221.78;5065595;28;20068;-85
2023/08/17 02:31:14;;;;;;;7.20;4.05;;;;;;;16.48;100.00;101218.34;5058795;28;20040;-84
2023/08/17 02:33:41;;;;;;;4.70;3.88;;;;;;;16.48;100.00;101217.50;5054539;28;20056;-85
2023/08/17 02:36:08;;;;;;;6.30;3.85;;;;;;;16.44;100.00;101215.81;5056663;28;20072;-85
2023/08/17 02:38:35;;;;;;;8.43;4.00;;;;;;;16.40;100.00;101212.41;5085351;28;20036;-87
2023/08/17 02:41:01;;;;;;;6.47;4.35;;;;;;;16.39;100.00;101208.00;5060171;28;20049;-84
2023/08/17 02:43:28;;;;;;;7.03;4.47;;;;;;;16.43;100.00;101207.03;5070383;28;20040;-87
2023/08/17 02:45:55;;;;;;;6.70;4.57;;;;;;;16.39;100.00;101202.72;5069015;28;20044;-85
2023/08/17 02:48:22;;;;;;;6.53;4.22;;;;;;;16.38;100.00;101203.63;5064642;28;20052;-86
2023/08/17 02:50:49;;;;;;;6.28;5.43;;;;;;;16.38;100.00;101204.47;5053953;28;20520;-86
2023/08/17 02:53:15;;;;;;;5.45;4.45;;;;;;;16.37;100.00;101200.13;5064108;28;20060;-87
2023/08/17 02:55:42;;;;;;;7.72;4.75;;;;;;;16.42;100.00;101192.06;5064893;28;20063;-86
2023/08/17 02:58:09;;;;;;;9.48;5.05;;;;;;;16.45;100.00;101192.00;5044260;28;20098;-85
2023/08/17 03:00:35;;;;;;;5.25;4.30;;;;;;;16.44;100.00;101182.34;5061844;28;20052;-85
2023/08/17 03:03:02;;;;;;;7.22;4.65;;;;;;;16.46;100.00;101190.22;5064661;28;20127;-84
2023/08/17 03:05:29;;;;;;;7.55;4.57;;;;;;;16.44;100.00;101184.09;5069367;28;20051;-85
2023/08/17 03:07:56;;;;;;;7.22;5.43;;;;;;;16.43;100.00;101174.47;5051197;28;20067;-85
2023/08/17 03:10:42;;;;;;;7.25;4.78;;;;;;;16.44;100.00;101171.78;5066310;28;20110;-88
2023/08/17 03:13:09;;;;;;;7.05;4.70;;;;;;;16.46;100.00;101163.78;5033985;28;20041;-86
2023/08/17 03:15:39;;;;;;;6.18;4.70;;;;;;;16.46;100.00;101166.44;5053633;28;20183;-86
2023/08/17 03:18:07;;;;;;;4.75;4.28;;;;;;;16.47;100.00;101171.69;5054027;28;20064;-86
2023/08/17 03:20:34;;;;;;;7.18;4.55;;;;;;;16.47;100.00;101165.53;5060548;28;20056;-88
2023/08/17 03:23:01;;;;;;;6.15;4.65;;;;;;;16.45;100.00;101154.13;5063515;28;20063;-86
2023/08/17 03:25:28;;;;;;;5.57;3.88;;;;;;;16.42;100.00;101154.22;5080616;28;20044;-87
2023/08/17 03:27:54;;;;;;;8.73;4.97;;;;;;;16.43;100.00;101158.59;5066694;28;20049;-85
2023/08/17 03:30:21;;;;;;;6.43;4.30;;;;;;;16.43;100.00;101148.03;5043527;28;20044;-86
2023/08/17 03:32:47;;;;;;;5.13;4.63;;;;;;;16.45;100.00;101140.91;5059436;28;20049;-85
2023/08/17 03:35:14;;;;;;;5.60;4.03;;;;;;;16.45;100.00;101139.16;5060001;28;20057;-86
2023/08/17 03:37:41;;;;;;;6.43;4.35;;;;;;;16.43;100.00;101132.19;5062874;28;20102;-85
2023/08/17 03:40:08;;;;;;;5.28;4.50;;;;;;;16.43;100.00;101130.38;5060412;28;20045;-86
2023/08/17 03:42:35;;;;;;;7.75;4.22;;;;;;;16.45;100.00;101125.06;5058731;28;20492;-86
2023/08/17 03:45:04;;;;;;;6.88;4.38;;;;;;;16.46;100.00;101130.31;5042468;28;20379;-85
2023/08/17 03:47:30;;;;;;;6.05;4.38;;;;;;;16.44;100.00;101136.53;5075258;28;20105;-87
2023/08/17 03:49:57;;;;;;;6.15;4.28;;;;;;;16.43;100.00;101134.81;5059069;28;20044;-86
2023/08/17 03:52:24;;;;;;;6.97;3.80;;;;;;;16.45;100.00;101144.44;5058991;28;20096;-86
2023/08/17 03:54:51;;;;;;;4.32;3.72;;;;;;;16.46;100.00;101147.94;5056193;28;20052;-86
2023/08/17 03:57:18;;;;;;;5.25;4.10;;;;;;;16.48;100.00;101147.00;5055285;28;20159;-86
2023/08/17 03:59:44;;;;;;;4.97;3.60;;;;;;;16.46;100.00;101140.88;5054492;28;20098;-86
2023/08/17 04:02:11;;;;;;;6.72;4.90;;;;;;;16.51;100.00;101146.06;5047320;28;20072;-85
2023/08/17 04:04:38;;;;;;;5.55;4.75;;;;;;;16.56;100.00;101148.56;5063982;28;20551;-85
2023/08/17 04:07:06;;;;;;;5.45;4.70;;;;;;;16.55;100.00;101147.69;5046956;28;20113;-88
2023/08/17 04:09:34;;;;;;;7.20;4.05;;;;;;;16.58;100.00;101152.03;5062652;28;20055;-88
2023/08/17 04:12:03;;;;;;;5.75;3.75;;;;;;;16.60;100.00;101152.88;5061529;28;20044;-88
2023/08/17 04:14:30;;;;;;;5.13;3.80;;;;;;;16.62;100.00;101151.03;5067428;28;20143;-87
2023/08/17 04:16:57;;;;;;;5.20;4.80;;;;;;;16.64;100.00;101151.88;5064841;28;20044;-84
2023/08/17 04:19:24;;;;;;;4.15;3.83;;;;;;;16.65;100.00;101164.22;5068619;28;20044;-88
2023/08/17 04:21:50;;;;;;;4.53;4.10;;;;;;;16.67;100.00;101163.25;5071347;28;20099;-82
2023/08/17 04:24:17;;;;;;;5.60;4.88;;;;;;;16.68;100.00;101159.69;5059116;28;20063;-86
2023/08/17 04:26:44;;;;;;;4.38;3.97;;;;;;;16.67;100.00;101154.44;5037549;28;20055;-84
2023/08/17 04:29:10;;;;;;;4.57;3.83;;;;;;;16.67;100.00;101155.31;5052651;28;20047;-84
2023/08/17 04:31:38;;;;;;;4.13;3.83;;;;;;;16.69;100.00;101155.28;5045983;28;20061;-87
2023/08/17 04:34:05;;;;;;;4.28;3.97;;;;;;;16.71;100.00;101164.03;5053433;28;20056;-84
2023/08/17 04:36:32;;;;;;;4.43;3.97;;;;;;;16.70;100.00;101162.31;5055803;28;20044;-85
2023/08/17 04:38:58;;;;;;;4.10;3.80;;;;;;;16.71;100.00;101164.03;5057538;28;20228;-83
2023/08/17 04:41:25;;;;;;;5.78;5.05;;;;;;;16.70;100.00;101168.44;5038843;28;20485;-84
2023/08/17 04:43:51;;;;;;;4.57;4.22;;;;;;;16.70;100.00;101167.59;5056023;28;20041;-84
2023/08/17 04:46:18;;;;;;;4.20;3.80;;;;;;;16.73;100.00;101175.44;5056491;28;20049;-87
2023/08/17 04:48:45;;;;;;;4.68;3.70;;;;;;;16.77;100.00;101176.22;5059409;28;20048;-85
2023/08/17 04:51:12;;;;;;;5.15;4.50;;;;;;;16.78;100.00;101165.59;5053548;28;20106;-84
2023/08/17 04:53:39;;;;;;;5.00;4.50;;;;;;;16.82;100.00;101161.97;5046737;28;20079;-87
2023/08/17 04:56:05;;;;;;;4.63;4.18;;;;;;;16.82;100.00;101158.47;5055005;28;20135;-84
2023/08/17 04:58:32;;;;;;;4.00;3.70;;;;;;;16.83;100.00;101173.41;5056154;28;20491;-86
2023/08/17 05:01:00;;;;;;;4.35;4.05;;;;;;;16.85;100.00;101171.59;5043893;28;20052;-85
2023/08/17 05:03:27;;;;;;;7.03;4.57;;;;;;;16.87;100.00;101173.28;5042943;28;20051;-84
2023/08/17 05:05:53;;;;;;;4.35;4.03;;;;;;;16.89;100.00;101177.69;5047433;28;20153;-85
2023/08/17 05:08:21;;;;;;;5.32;4.38;;;;;;;16.91;100.00;101183.81;5059695;28;20044;-86
2023/08/17 05:10:49;;;;;;;4.50;4.07;;;;;;;16.90;100.00;101180.31;5043714;28;20045;-84
2023/08/17 05:13:16;;;;;;;3.75;3.38;;;;;;;16.96;100.00;101185.44;5050561;28;20561;-87
2023/08/17 05:15:46;;;;;;;5.13;3.58;;;;;;;17.00;100.00;101192.38;5057892;28;20047;-84
2023/08/17 05:18:14;;;;;;;6.10;3.97;;;;;;;17.06;100.00;101193.97;5064953;28;20037;-85
2023/08/17 05:20:41;;;;;;;4.82;4.07;;;;;;;17.11;100.00;101200.00;5042712;28;20052;-86
2023/08/17 05:23:07;;;;;;;5.38;3.72;;;;;;;17.13;100.00;101190.25;5045067;28;20056;-86
2023/08/17 05:25:34;;;;;;;4.05;3.80;;;;;;;17.11;100.00;101192.06;5060647;28;20052;-88
2023/08/17 05:28:01;;;;;;;4.07;3.78;;;;;;;17.11;100.00;101196.50;5047426;28;20051;-86
2023/08/17 05:30:28;;;;;;;4.45;4.03;;;;;;;17.13;100.00;101195.56;5055118;28;20072;-88
2023/08/17 05:32:57;;;;;;;5.22;3.83;;;;;;;17.16;100.00;101199.91;5083759;28;20053;-89
2023/08/17 05:35:24;;;;;;;3.42;3.22;;;;;;;17.16;100.00;101200.75;5093055;28;20053;-85
2023/08/17 05:37:51;;;;;;;4.22;3.85;;;;;;;17.19;100.00;101197.16;5039867;28;20072;-88
2023/08/17 05:40:18;;;;;;;4.88;4.32;;;;;;;17.19;100.00;101189.22;5051423;28;20086;-83
2023/08/17 05:42:45;;;;;;;5.15;3.78;;;;;;;17.22;100.00;101190.91;5048299;28;20048;-88
2023/08/17 05:45:12;;;;;;;5.15;4.20;;;;;;;17.18;100.00;101193.66;5033643;28;20396;-85
2023/08/17 05:47:39;;;;;;;4.68;4.22;;;;;;;17.20;100.00;101204.19;5060324;28;20057;-87
2023/08/17 05:50:07;;;;;;;6.10;3.55;;;;;;;17.20;100.00;101204.19;5067765;28;20040;-87
2023/08/17 05:52:33;;;;;;;6.97;4.30;;;;;;;17.19;100.00;101200.69;5046503;28;20048;-88
2023/08/17 05:55:01;;;;;;;4.68;4.28;;;;;;;17.18;100.00;101200.69;5060795;28;20072;-88
2023/08/17 05:57:28;;;;;;;3.95;3.65;;;;;;;17.19;100.00;101202.44;5067602;28;20127;-86
2023/08/17 05:59:54;;;;;;;3.80;3.50;;;;;;;17.19;100.00;101198.03;5059845;28;20554;-87
2023/08/17 06:02:24;;;;;;;5.55;4.25;;;;;;;17.19;100.00;101200.69;5042174;28;20392;-85
2023/08/17 06:04:52;;;;;;;4.57;4.15;;;;;;;17.19;100.00;101202.44;5063046;28;20051;-87
2023/08/17 06:07:21;;;;;;;6.43;4.30;;;;;;;17.20;100.00;101201.53;5066211;28;20136;-87
2023/08/17 06:09:49;;;;;;;4.88;4.47;;;;;;;17.20;100.00;101205.03;5048837;28;20053;-88
2023/08/17 06:12:17;;;;;;;6.32;4.70;;;;;;;17.22;100.00;101212.94;5077310;28;20066;-90
2023/08/17 06:14:45;;;;;;;7.00;4.60;;;;;;;17.22;100.00;101209.41;5076990;28;20047;-91
2023/08/17 06:17:12;;;;;;;4.63;4.18;;;;;;;17.22;100.00;101207.63;5068927;28;20044;-92
2023/08/17 06:19:39;;;;;;;4.85;4.45;;;;;;;17.23;100.00;101206.72;5069868;28;20072;-88
2023/08/17 06:22:06;;;;;;;5.18;4.70;;;;;;;17.25;100.00;101210.22;5057183;28;20123;-87
2023/08/17 06:24:33;;;;;;;4.72;4.32;;;;;;;17.28;100.00;101214.56;5079170;28;20115;-88
2023/08/17 06:27:01;;;;;;;7.07;4.60;;;;;;;17.29;100.00;101208.34;5057055;28;20049;-90
2023/08/17 06:29:32;;;;;;;4.95;3.72;;;;;;;17.33;100.00;101212.66;5064806;28;20036;-88
2023/08/17 06:31:59;;;;;;;4.25;3.85;;;;;;;17.37;100.00;101211.66;5045076;28;20057;-85
2023/08/17 06:34:26;;;;;;;5.88;4.45;;;;;;;17.38;100.00;101216.03;5068702;28;20051;-88
2023/08/17 06:37:05;;;;;;;4.95;4.03;;;;;;;17.41;100.00;101210.63;5051215;28;20056;-90
2023/08/17 06:39:34;;;;;;;7.25;4.90;;;;;;;17.45;100.00;101212.28;5047436;28;20574;-89
2023/08/17 06:42:02;;;;;;;4.25;3.85;;;;;;;17.49;100.00;101218.38;5062602;28;20048;-87
2023/08/17 06:44:31;;;;;;;5.97;4.35;;;;;;;17.49;100.00;101221.88;5064963;28;20071;-89
2023/08/17 06:46:58;;;;;;;4.63;4.32;;;;;;;17.50;100.00;101220.97;5033857;28;20061;-87
2023/08/17 06:49:26;;;;;;;5.72;5.00;;;;;;;17.48;100.00;101216.63;5071832;28;20149;-86
2023/08/17 06:51:53;;;;;;;4.70;4.35;;;;;;;17.46;100.00;101221.97;5070674;28;20115;-86
2023/08/17 06:54:20;;;;;;;4.80;4.20;;;;;;;17.50;100.00;101220.09;5065933;28;20098;-87
2023/08/17 06:56:47;;;;;;;4.55;4.15;;;;;;;17.55;100.00;101217.31;5067320;28;20053;-90
2023/08/17 06:59:14;;;;;;;4.13;3.83;;;;;;;17.59;100.00;101209.25;5062195;28;20052;-87
2023/08/17 07:01:41;;;;;;;4.25;3.95;;;;;;;17.62;100.00;101213.59;5074283;28;20083;-88
2023/08/17 07:04:08;;;;;;;4.45;4.05;;;;;;;17.65;100.00;101211.72;5073039;28;20049;-88
2023/08/17 07:06:36;;;;;;;4.43;3.33;;;;;;;17.64;100.00;101204.69;5063637;28;20052;-90
2023/08/17 07:09:06;;;;;;;5.35;4.85;;;;;;;17.71;100.00;101207.16;5049980;28;20056;-90
2023/08/17 07:11:33;;;;;;;5.07;4.78;;;;;;;17.77;100.00;101213.13;5072978;28;20052;-89
2023/08/17 07:14:06;;;;;;;4.38;4.07;;;;;;;17.78;100.00;101211.34;5069588;28;20079;-87
2023/08/17 07:16:33;;;;;;;6.82;4.40;;;;;;;17.78;100.00;101216.63;5075168;28;20131;-88
2023/08/17 07:19:03;;;;;;;3.90;3.60;;;;;;;17.78;100.00;101217.53;5056981;28;20041;-88
2023/08/17 07:21:30;;;;;;;4.63;4.20;;;;;;;17.77;100.00;101218.44;5070745;28;20045;-88
2023/08/17 07:24:13;;;;;;;3.72;3.53;;;;;;;17.77;100.00;101220.19;5063714;28;20079;-88
2023/08/17 07:26:41;;;;;;;7.05;4.20;;;;;;;17.77;100.00;101218.44;5060294;28;20044;-86
2023/08/17 07:29:08;;;;;;;4.63;4.20;;;;;;;17.80;100.00;101220.13;5105119;28;20071;-91
2023/08/17 07:31:38;;;;;;;3.90;3.42;;;;;;;17.81;100.00;101205.97;5067075;28;20136;-86
2023/08/17 07:34:09;;;;;;;3.75;3.45;;;;;;;17.81;100.00;101211.25;5077867;28;20051;-90
2023/08/17 07:36:37;;;;;;;4.70;4.25;;;;;;;17.85;100.00;101212.91;5063248;28;20055;-86
2023/08/17 07:39:05;;;;;;;4.07;3.78;;;;;;;17.85;100.00;101215.56;5076872;28;20033;-90
2023/08/17 07:44:23;;;;;;;3.97;3.67;;;;;;;17.91;100.00;101214.47;5066067;28;20041;-86
2023/08/17 07:46:52;;;;;;;4.93;4.53;;;;;;;17.90;100.00;101215.38;5075077;28;20056;-90
2023/08/17 07:49:31;;;;;;;4.65;4.20;;;;;;;17.88;100.00;101219.88;5085919;28;20075;-87
2023/08/17 07:51:58;;;;;;;4.40;4.07;;;;;;;17.78;100.00;101220.16;5052526;28;20053;-86
2023/08/17 07:54:25;;;;;;;4.40;4.10;;;;;;;17.72;100.00;101219.47;5066747;28;20045;-88
2023/08/17 07:56:52;;;;;;;5.80;4.20;;;;;;;17.73;100.00;101222.09;5060720;28;20045;-87
2023/08/17 07:59:18;;;;;;;4.57;4.28;;;;;;;17.74;100.00;101225.59;5055671;28;20135;-86
2023/08/17 08:01:46;;;;;;;7.65;4.60;;;;;;;17.69;100.00;101228.34;5053584;28;20056;-86
2023/08/17 08:04:13;;;;;;;4.63;4.30;;;;;;;17.72;100.00;101241.53;5074302;28;20068;-87
2023/08/17 08:06:39;;;;;;;4.28;3.97;;;;;;;17.77;100.00;101231.66;5078374;28;20048;-87
2023/08/17 08:09:07;;;;;;;4.18;3.88;;;;;;;17.74;100.00;101244.97;5056448;28;20127;-87
2023/08/17 08:11:50;;;;;;;4.28;3.97;;;;;;;17.69;100.00;101231.00;5068747;28;20053;-89
2023/08/17 08:14:18;;;;;;;4.53;4.00;;;;;;;17.69;100.00;101244.25;5054636;28;20472;-88
2023/08/17 08:16:50;;;;;;;4.07;3.67;;;;;;;17.70;100.00;101227.44;5072754;28;20053;-87
2023/08/17 08:19:17;;;;;;;5.05;4.45;;;;;;;17.71;100.00;101237.13;5063911;28;20042;-91
2023/08/17 08:21:47;;;;;;;6.50;3.88;;;;;;;17.73;100.00;101248.56;5060361;28;20052;-86
2023/08/17 08:24:15;;;;;;;4.47;4.07;;;;;;;17.71;100.00;101246.88;5038180;28;20048;-88
2023/08/17 08:26:45;;;;;;;4.43;4.03;;;;;;;17.68;100.00;101243.38;5065233;28;20056;-87
2023/08/17 08:29:12;;;;;;;3.97;3.60;;;;;;;17.67;100.00;101249.59;5072327;28;20111;-89
2023/08/17 08:31:39;;;;;;;4.30;3.90;;;;;;;17.71;100.00;101245.06;5043213;28;20064;-87
2023/08/17 08:34:06;;;;;;;3.90;3.60;;;;;;;17.71;100.00;101239.78;5064822;28;20068;-89
2023/08/17 08:36:32;;;;;;;3.35;3.10;;;;;;;17.78;100.00;101241.34;5052947;28;20559;-89
2023/08/17 08:38:59;;;;;;;5.22;3.83;;;;;;;17.83;100.00;101233.25;5060167;28;20036;-88
2023/08/17 08:41:28;;;;;;;4.47;4.18;;;;;;;17.88;100.00;101231.34;5062697;28;20044;-89
2023/08/17 08:43:55;;;;;;;4.07;3.65;;;;;;;17.91;100.00;101230.38;5054319;28;20341;-89
2023/08/17 08:46:25;;;;;;;4.43;4.05;;;;;;;17.95;100.00;101230.28;5051351;28;20136;-88
2023/08/17 08:48:54;;;;;;;3.88;3.58;;;;;;;17.97;100.00;101232.88;5051446;28;20130;-90
2023/08/17 08:51:28;;;;;;;4.43;4.07;;;;;;;17.97;100.00;101232.88;5052871;28;20044;-88
2023/08/17 08:54:09;;;;;;;4.10;3.70;;;;;;;17.95;100.00;101232.03;5073631;28;20102;-89
2023/08/17 08:56:39;;;;;;;4.03;3.63;;;;;;;18.03;100.00;101230.03;5053514;28;20495;-89
2023/08/17 08:59:07;;;;;;;3.75;3.50;;;;;;;18.10;100.00;101231.56;5052342;28;20124;-89
2023/08/17 09:01:35;;;;;;;4.00;3.70;;;;;;;18.16;100.00;101223.44;5072845;28;20045;-88
2023/08/17 09:04:03;;;;;;;2.58;2.38;;;;;;;18.17;100.00;101230.47;5071447;28;20143;-88
2023/08/17 09:06:31;;;;;;;2.22;2.08;;;;;;;18.17;100.00;101230.47;5062172;28;20128;-89
2023/08/17 09:09:01;;;;;;;2.10;1.65;;;;;;;18.14;100.00;101225.25;5057698;28;20110;-88
2023/08/17 09:11:30;;;;;;;2.83;2.72;;;;;;;18.16;100.00;101234.03;5058699;28;20045;-87
2023/08/17 09:13:57;;;;;;;2.15;2.05;;;;;;;18.21;100.00;101225.06;5066091;28;20060;-88
2023/08/17 09:16:30;;;;;;;2.38;2.20;;;;;;;18.27;100.00;101230.19;5069946;28;20192;-88
2023/08/17 09:18:59;;;;;;;2.45;2.35;;;;;;;18.35;100.00;101231.69;5060751;28;20036;-88
2023/08/17 09:21:26;;;;;;;4.90;2.95;;;;;;;18.43;100.00;101233.19;5053734;28;20053;-87
2023/08/17 09:23:55;;;;;;;2.58;2.30;;;;;;;18.41;100.00;101230.59;5079403;28;20049;-90
2023/08/17 09:26:23;;;;;;;5.97;2.63;;;;;;;18.38;100.00;101237.78;5062356;28;20079;-87
2023/08/17 09:28:54;;;;;;;4.28;2.33;;;;;;;18.32;100.00;101229.13;5070356;28;20040;-85
2023/08/17 09:31:27;;;;;;;2.85;2.63;;;;;;;18.30;100.00;101230.97;5064385;28;20481;-88
2023/08/17 09:33:54;;;;;;;3.30;3.05;;;;;;;18.18;100.00;101218.94;5067504;28;20044;-88
2023/08/17 09:36:27;;;;;;;3.03;2.55;;;;;;;18.06;100.00;101229.94;5055887;28;20060;-87
2023/08/17 09:38:57;;;;;;;2.55;2.38;;;;;;;18.05;100.00;101235.28;5065314;28;20044;-87
2023/08/17 09:41:26;;;;;;;2.78;2.58;;;;;;;18.04;100.00;101229.09;5058773;28;20076;-87
2023/08/17 09:43:56;;;;;;;2.70;2.45;;;;;;;18.08;100.00;101225.47;5079871;28;20410;-92
2023/08/17 09:46:25;;;;;;;2.13;2.03;;;;;;;18.10;100.00;101223.63;5063115;28;20059;-89
2023/08/17 09:48:52;;;;;;;2.17;2.08;;;;;;;18.09;100.00;101227.19;5073266;28;20496;-88
2023/08/17 09:51:20;;;;;;;2.10;2.00;;;;;;;18.06;100.00;101221.13;5072132;28;20095;-89
2023/08/17 09:53:53;;;;;;;1.98;1.70;;;;;;;17.98;100.00;101222.22;5052862;28;20571;-90
2023/08/17 09:56:23;;;;;;;;;;;;;;;17.94;100.00;101230.31;5047071;28;20040;-93
2023/08/17 09:58:55;;;;;;;1.60;1.50;;;;;;;17.96;100.00;101218.75;5045797;28;20016;-89
2023/08/17 10:01:25;;;;;;;2.22;1.48;;;;;;;17.98;100.00;101218.72;5056167;28;20098;-88
2023/08/17 10:03:57;;;;;;;1.88;1.75;;;;;;;18.05;100.00;101222.03;5053029;28;20127;-87
2023/08/17 10:06:29;;;;;;;1.63;1.52;;;;;;;17.97;100.00;101223.13;5060585;28;20048;-88
2023/08/17 10:09:01;;;;;;;2.17;1.98;;;;;;;18.01;100.00;101229.22;5067325;28;20110;-89
2023/08/17 10:11:34;;;;;;;2.10;2.00;;;;;;;18.00;100.00;101235.41;5068026;28;20048;-88
2023/08/17 10:14:14;;;;;;;1.90;1.80;;;;;;;17.96;100.00;101231.13;5055549;28;20041;-89
2023/08/17 10:17:02;;;;;;;3.35;2.40;;;;;;;17.90;100.00;101232.16;5065385;28;20084;-89
2023/08/17 10:19:45;;;;;;;2.58;2.00;;;;;;;17.79;100.00;101236.91;5066725;28;20037;-88
2023/08/17 10:22:29;;;;;;;2.28;2.17;;;;;;;17.72;100.00;101233.59;5049924;28;20049;-85
2023/08/17 10:24:59;;;;;;;4.70;2.22;;;;;;;17.67;100.00;101235.50;5058214;28;20044;-87
2023/08/17 10:27:28;;;;;;;3.05;2.17;;;;;;;17.77;100.00;101234.31;5050101;28;20044;-86
2023/08/17 10:30:04;;;;;;;3.05;2.30;;;;;;;17.85;100.00;101218.19;5062659;28;20045;-87
2023/08/17 10:32:32;;;;;;;2.25;2.10;;;;;;;17.81;100.00;101228.00;5069382;28;20037;-88
2023/08/17 10:35:03;;;;;;;2.13;1.85;;;;;;;17.83;100.00;101227.97;5075599;28;20518;-86
2023/08/17 10:37:34;;;;;;;1.90;1.80;;;;;;;17.93;100.00;101224.16;5046742;28;20546;-88
2023/08/17 10:40:03;;;;;;;2.05;1.95;;;;;;;17.91;100.00;101222.44;5065631;28;20098;-92
2023/08/17 10:42:37;;;;;;;2.60;2.40;;;;;;;17.85;100.00;101228.78;5051230;28;20041;-87
2023/08/17 10:45:30;;;;;;;2.45;2.25;;;;;;;17.79;100.00;101240.41;5079801;28;20434;-87
2023/08/17 10:48:06;;;;;;;7.13;2.33;;;;;;;17.84;100.00;101238.50;5063231;28;20052;-88
2023/08/17 10:50:36;;;;;;;1.90;1.80;;;;;;;17.92;100.00;101240.06;5066685;28;20411;-88
2023/08/17 10:53:15;;;;;;;2.17;2.08;;;;;;;17.94;100.00;101240.91;5047999;28;20045;-89
2023/08/17 10:55:49;;;;;;;3.88;2.35;;;;;;;17.90;100.00;101245.41;5064455;28;21453;-88
2023/08/17 10:58:17;;;;;;;3.25;2.35;;;;;;;17.83;100.00;101247.38;5055556;28;20485;-88
2023/08/17 11:00:44;;;;;;;2.47;2.28;;;;;;;17.74;100.00;101255.56;5052535;28;20496;-87
2023/08/17 11:03:21;;;;;;;3.22;2.33;;;;;;;17.63;100.00;101258.53;5060559;28;20045;-87
2023/08/17 11:05:56;;;;;;;2.10;2.00;;;;;;;17.56;100.00;101258.75;5041298;28;20045;-87
2023/08/17 11:08:40;;;;;;;3.15;2.25;;;;;;;17.54;100.00;101264.09;5043953;28;20048;-87
2023/08/17 11:11:11;;;;;;;2.55;2.17;;;;;;;17.45;100.00;101264.34;5070278;28;20391;-90
2023/08/17 11:13:49;;;;;;;2.28;2.17;;;;;;;17.39;100.00;101268.06;5063847;28;20166;-88
2023/08/17 11:16:19;;;;;;;4.30;2.33;;;;;;;17.30;100.00;101281.50;5051431;28;20116;-89
2023/08/17 11:18:51;;;;;;;3.20;3.00;;;;;;;17.28;100.00;101275.41;5071451;28;20389;-87
2023/08/17 11:21:18;;;;;;;6.60;2.97;;;;;;;17.24;100.00;101277.25;5071029;28;20036;-87
2023/08/17 11:23:45;;;;;;;2.95;2.75;;;;;;;17.20;100.00;101273.81;5058535;28;20044;-88
2023/08/17 11:26:22;;;;;;;2.75;2.42;;;;;;;17.23;100.00;101275.53;5053407;28;20070;-91
2023/08/17 11:28:49;;;;;;;3.88;3.35;;;;;;;17.33;100.00;101284.94;5063046;28;20040;-89